createdAt,value
2017-11-13T00:02:11.612Z,4.60
2017-11-13T00:04:40.287Z,4.80
2017-11-13T00:07:07.813Z,4.78
2017-11-13T00:09:36.092Z,9.93
2017-11-13T00:12:04.370Z,4.82
2017-11-13T00:14:32.901Z,6.03
2017-11-13T00:17:00.413Z,5.10
2017-11-13T00:19:29.094Z,4.25
2017-11-13T00:21:57.927Z,3.15
2017-11-13T00:24:26.251Z,3.80
2017-11-13T00:26:54.565Z,6.60
2017-11-13T00:29:22.073Z,6.85
2017-11-13T00:31:49.582Z,6.12
2017-11-13T00:34:17.105Z,2.30
2017-11-13T00:36:45.374Z,3.50
2017-11-13T00:39:13.643Z,9.05
2017-11-13T00:41:41.184Z,4.10
2017-11-13T00:44:08.998Z,5.80
2017-11-13T00:46:36.509Z,3.30
2017-11-13T00:49:04.044Z,4.97
2017-11-13T00:51:31.561Z,2.90
2017-11-13T00:53:59.825Z,4.00
2017-11-13T00:56:28.102Z,2.40
2017-11-13T00:58:56.363Z,2.30
2017-11-13T01:01:23.855Z,5.45
2017-11-13T01:03:51.415Z,6.85
2017-11-13T01:06:19.173Z,2.55
2017-11-13T01:08:48.067Z,3.83
2017-11-13T01:11:15.609Z,5.37
2017-11-13T01:13:43.899Z,3.17
2017-11-13T01:16:11.429Z,9.60
2017-11-13T01:18:38.955Z,3.45
2017-11-13T01:21:06.462Z,8.48
2017-11-13T01:23:34.730Z,11.00
2017-11-13T01:26:02.276Z,5.70
2017-11-13T01:28:29.862Z,8.38
2017-11-13T01:30:58.143Z,5.37
2017-11-13T01:33:26.452Z,9.88
2017-11-13T01:35:53.960Z,4.10
2017-11-13T01:38:21.490Z,7.72
2017-11-13T01:40:49.096Z,10.32
2017-11-13T01:43:17.354Z,5.47
2017-11-13T01:45:44.864Z,6.93
2017-11-13T01:48:12.374Z,3.60
2017-11-13T01:50:39.867Z,5.72
2017-11-13T01:53:08.131Z,5.70
2017-11-13T01:55:35.819Z,11.55
2017-11-13T01:58:03.824Z,3.03
2017-11-13T02:00:31.378Z,6.60
2017-11-13T02:02:58.889Z,9.85
2017-11-13T02:05:26.393Z,9.20
2017-11-13T02:07:53.955Z,5.47
2017-11-13T02:10:21.482Z,8.15
2017-11-13T02:12:49.176Z,9.82
2017-11-13T02:15:17.414Z,7.45
2017-11-13T02:17:44.937Z,8.30
2017-11-13T02:20:13.222Z,5.18
2017-11-13T02:22:41.501Z,9.60
2017-11-13T02:25:09.777Z,7.10
2017-11-13T02:27:38.048Z,10.32
2017-11-13T02:30:06.360Z,8.02
2017-11-13T02:32:33.892Z,13.93
2017-11-13T02:35:01.450Z,6.10
2017-11-13T02:37:29.006Z,6.55
2017-11-13T02:39:57.299Z,9.63
2017-11-13T02:42:26.178Z,8.23
2017-11-13T02:44:53.728Z,8.20
2017-11-13T02:47:22.012Z,7.18
2017-11-13T02:49:50.284Z,13.52
2017-11-13T02:52:18.567Z,7.43
2017-11-13T02:54:46.082Z,10.93
2017-11-13T02:57:13.579Z,11.10
2017-11-13T02:59:42.204Z,6.80
2017-11-13T03:02:09.792Z,9.68
2017-11-13T03:04:37.295Z,5.07
2017-11-13T03:07:04.828Z,14.45
2017-11-13T03:09:33.155Z,10.70
2017-11-13T03:12:00.686Z,8.38
2017-11-13T03:14:28.955Z,8.32
2017-11-13T03:16:57.332Z,9.25
2017-11-13T03:19:25.606Z,10.88
2017-11-13T03:21:53.876Z,5.40
2017-11-13T03:24:22.158Z,4.05
2017-11-13T03:26:50.511Z,9.18
2017-11-13T03:29:18.001Z,4.87
2017-11-13T03:31:46.301Z,5.90
2017-11-13T03:34:13.804Z,10.38
2017-11-13T03:36:41.365Z,5.80
2017-11-13T03:39:08.928Z,12.77
2017-11-13T03:41:36.450Z,7.65
2017-11-13T03:44:04.630Z,8.27
2017-11-13T03:46:32.953Z,6.85
2017-11-13T03:49:01.228Z,13.25
2017-11-13T03:51:29.511Z,5.07
2017-11-13T03:53:57.808Z,3.33
2017-11-13T03:56:26.484Z,13.27
2017-11-13T03:58:53.987Z,8.05
2017-11-13T04:01:21.523Z,10.68
2017-11-13T04:03:49.110Z,8.45
2017-11-13T04:06:16.598Z,9.15
2017-11-13T04:08:44.898Z,7.65
2017-11-13T04:11:12.394Z,15.82
2017-11-13T04:13:39.894Z,11.35
2017-11-13T04:16:08.207Z,8.95
2017-11-13T04:18:35.733Z,9.93
2017-11-13T04:21:04.002Z,10.32
2017-11-13T04:23:32.304Z,9.95
2017-11-13T04:25:59.817Z,9.63
2017-11-13T04:28:27.326Z,7.60
2017-11-13T04:30:54.830Z,15.68
2017-11-13T04:33:22.321Z,14.60
2017-11-13T04:35:50.578Z,7.50
2017-11-13T04:38:18.094Z,9.55
2017-11-13T04:40:45.611Z,12.13
2017-11-13T04:43:13.905Z,10.23
2017-11-13T04:45:41.443Z,8.32
2017-11-13T04:48:09.730Z,10.18
2017-11-13T04:50:38.001Z,9.57
2017-11-13T04:53:06.277Z,10.95
2017-11-13T04:55:34.554Z,10.88
2017-11-13T04:58:02.836Z,12.95
2017-11-13T05:00:31.142Z,12.15
2017-11-13T05:02:58.668Z,12.48
2017-11-13T05:05:26.935Z,13.40
2017-11-13T05:07:55.232Z,18.35
2017-11-13T05:10:22.738Z,19.12
2017-11-13T05:12:50.230Z,23.62
2017-11-13T05:15:18.506Z,15.85
2017-11-13T05:17:46.782Z,14.23
2017-11-13T05:20:15.077Z,16.87
2017-11-13T05:22:42.758Z,19.23
2017-11-13T05:25:10.258Z,14.77
2017-11-13T05:27:37.782Z,8.90
2017-11-13T05:30:05.298Z,14.52
2017-11-13T05:32:33.633Z,12.98
2017-11-13T05:35:01.131Z,18.23
2017-11-13T05:37:29.424Z,14.05
2017-11-13T05:39:56.942Z,14.57
2017-11-13T05:42:24.449Z,13.30
2017-11-13T05:44:51.968Z,12.80
2017-11-13T05:47:19.484Z,9.38
2017-11-13T05:49:47.272Z,14.95
2017-11-13T05:52:15.598Z,12.27
2017-11-13T05:54:43.866Z,8.27
2017-11-13T05:57:12.148Z,14.80
2017-11-13T05:59:40.456Z,12.40
2017-11-13T06:02:07.949Z,11.43
2017-11-13T06:04:35.457Z,16.27
2017-11-13T06:07:03.005Z,13.32
2017-11-13T06:09:30.505Z,15.35
2017-11-13T06:11:58.007Z,15.63
2017-11-13T06:14:26.302Z,13.00
2017-11-13T06:16:53.797Z,15.93
2017-11-13T06:19:21.302Z,11.93
2017-11-13T06:21:49.595Z,16.87
2017-11-13T06:24:17.096Z,21.20
2017-11-13T06:26:44.595Z,15.82
2017-11-13T06:29:12.592Z,15.15
2017-11-13T06:31:40.103Z,20.25
2017-11-13T06:34:08.861Z,13.90
2017-11-13T06:36:36.403Z,12.63
2017-11-13T06:39:03.894Z,13.90
2017-11-13T06:41:31.436Z,15.65
2017-11-13T06:43:58.988Z,10.95
2017-11-13T06:46:26.504Z,15.60
2017-11-13T06:48:54.811Z,18.00
2017-11-13T06:51:22.413Z,20.15
2017-11-13T06:53:49.988Z,13.48
2017-11-13T06:56:17.505Z,14.23
2017-11-13T06:58:45.042Z,15.65
2017-11-13T07:01:12.593Z,15.77
2017-11-13T07:03:40.864Z,16.02
2017-11-13T07:06:09.166Z,11.35
2017-11-13T07:08:36.665Z,14.32
2017-11-13T07:11:04.298Z,11.70
2017-11-13T07:13:32.160Z,14.55
2017-11-13T07:15:59.674Z,16.55
2017-11-13T07:18:27.953Z,12.60
2017-11-13T07:20:55.497Z,17.20
2017-11-13T07:23:23.044Z,18.58
2017-11-13T07:25:51.070Z,17.30
2017-11-13T07:28:18.663Z,18.87
2017-11-13T07:30:46.415Z,18.80
2017-11-13T07:33:14.703Z,20.45
2017-11-13T07:35:42.197Z,20.85
2017-11-13T07:38:10.463Z,17.73
2017-11-13T07:40:37.997Z,22.85
2017-11-13T07:43:05.498Z,13.30
2017-11-13T07:45:33.937Z,17.60
2017-11-13T07:48:02.757Z,18.87
2017-11-13T07:50:31.042Z,15.07
2017-11-13T07:52:59.320Z,15.55
2017-11-13T07:55:27.603Z,13.10
2017-11-13T07:57:55.905Z,19.48
2017-11-13T08:00:23.406Z,15.98
2017-11-13T08:02:50.941Z,17.02
2017-11-13T08:05:18.447Z,12.18
2017-11-13T08:07:46.950Z,11.18
2017-11-13T08:10:14.510Z,17.08
2017-11-13T08:12:42.046Z,8.05
2017-11-13T08:15:10.323Z,14.05
2017-11-13T08:17:38.684Z,10.98
2017-11-13T08:20:06.239Z,16.48
2017-11-13T08:22:33.763Z,8.07
2017-11-13T08:25:01.276Z,15.52
2017-11-13T08:27:29.566Z,9.98
2017-11-13T08:29:57.090Z,9.68
2017-11-13T08:32:24.612Z,8.93
2017-11-13T08:34:52.130Z,6.53
2017-11-13T08:37:20.462Z,6.47
2017-11-13T08:39:47.983Z,7.97
2017-11-13T08:42:15.501Z,10.07
2017-11-13T08:44:43.161Z,10.37
2017-11-13T08:47:11.446Z,7.30
2017-11-13T08:49:39.446Z,7.00
2017-11-13T08:52:07.244Z,6.30
2017-11-13T08:54:34.763Z,3.83
2017-11-13T08:57:02.381Z,10.90
2017-11-13T08:59:29.926Z,5.07
2017-11-13T09:01:57.513Z,6.80
2017-11-13T09:04:25.198Z,6.07
2017-11-13T09:06:53.519Z,5.47
2017-11-13T09:09:21.186Z,3.70
2017-11-13T09:11:48.836Z,6.15
2017-11-13T09:14:16.425Z,4.53
2017-11-13T09:16:44.001Z,5.70
2017-11-13T09:19:12.275Z,10.45
2017-11-13T09:21:39.801Z,6.80
2017-11-13T09:24:07.321Z,8.25
2017-11-13T09:26:34.864Z,7.80
2017-11-13T09:29:03.187Z,5.20
2017-11-13T09:31:30.822Z,7.80
2017-11-13T09:33:58.352Z,5.33
2017-11-13T09:36:26.186Z,2.93
2017-11-13T09:38:53.720Z,4.13
2017-11-13T09:41:21.238Z,7.30
2017-11-13T09:43:48.799Z,5.17
2017-11-13T09:46:16.588Z,3.00
2017-11-13T09:48:44.091Z,5.33
2017-11-13T09:51:11.729Z,5.47
2017-11-13T09:53:39.816Z,2.23
2017-11-13T09:56:07.487Z,6.37
2017-11-13T09:58:35.132Z,5.63
2017-11-13T10:01:02.828Z,5.37
2017-11-13T10:03:30.326Z,7.20
2017-11-13T10:05:58.137Z,3.60
2017-11-13T10:08:25.670Z,6.00
2017-11-13T10:10:53.238Z,3.67
2017-11-13T10:13:21.428Z,4.00
2017-11-13T10:15:49.046Z,6.87
2017-11-13T10:18:16.639Z,6.20
2017-11-13T10:20:44.269Z,8.53
2017-11-13T10:23:13.315Z,7.13
2017-11-13T10:25:41.061Z,5.53
2017-11-13T10:28:08.577Z,6.30
2017-11-13T10:30:36.635Z,6.40
2017-11-13T10:33:04.447Z,11.60
2017-11-13T10:35:31.952Z,7.63
2017-11-13T10:38:00.231Z,7.50
2017-11-13T10:40:27.901Z,8.03
2017-11-13T10:42:56.100Z,8.10
2017-11-13T10:45:23.618Z,8.90
2017-11-13T10:47:51.491Z,8.27
2017-11-13T10:50:19.114Z,6.07
2017-11-13T10:52:46.632Z,6.93
2017-11-13T10:55:14.964Z,6.70
2017-11-13T10:57:42.482Z,5.40
2017-11-13T11:00:09.979Z,5.70
2017-11-13T11:02:37.514Z,11.17
2017-11-13T11:05:05.021Z,5.40
2017-11-13T11:07:32.533Z,4.87
2017-11-13T11:10:00.055Z,7.20
2017-11-13T11:12:30.798Z,8.10
2017-11-13T11:15:01.866Z,4.33
2017-11-13T11:20:37.031Z,3.63
2017-11-13T11:23:25.483Z,3.47
2017-11-13T11:25:57.727Z,7.90
2017-11-13T11:28:25.816Z,7.50
2017-11-13T11:30:59.114Z,6.90
2017-11-13T11:33:42.058Z,6.87
2017-11-13T11:36:26.383Z,5.10
2017-11-13T11:38:53.907Z,5.70
2017-11-13T11:41:22.240Z,5.80
2017-11-13T11:43:49.773Z,9.20
2017-11-13T11:46:18.234Z,8.73
2017-11-13T11:49:02.608Z,8.00
2017-11-13T11:51:30.130Z,12.70
2017-11-13T11:54:02.465Z,10.40
2017-11-13T11:56:44.851Z,7.33
2017-11-13T11:59:12.409Z,5.87
2017-11-13T12:01:39.935Z,11.50
2017-11-13T12:04:08.216Z,12.67
2017-11-13T12:06:37.157Z,7.43
2017-11-13T12:09:05.588Z,5.43
2017-11-13T12:11:33.117Z,11.10
2017-11-13T12:14:01.455Z,6.50
2017-11-13T12:16:29.159Z,7.93
2017-11-13T12:18:56.978Z,8.80
2017-11-13T12:21:24.518Z,9.20
2017-11-13T12:23:52.248Z,6.77
2017-11-13T12:26:22.012Z,8.67
2017-11-13T12:28:49.659Z,13.83
2017-11-13T12:31:17.166Z,9.00
2017-11-13T12:33:44.698Z,5.27
2017-11-13T12:36:12.236Z,5.47
2017-11-13T12:38:39.731Z,3.93
2017-11-13T12:41:07.238Z,10.60
2017-11-13T12:43:35.537Z,9.93
2017-11-13T12:46:03.381Z,5.27
2017-11-13T12:48:31.655Z,6.27
2017-11-13T12:50:59.969Z,8.70
2017-11-13T12:53:27.822Z,5.83
2017-11-13T12:55:55.357Z,11.23
2017-11-13T12:58:23.650Z,13.20
2017-11-13T13:00:52.988Z,9.43
2017-11-13T13:03:20.496Z,5.47
2017-11-13T13:05:48.813Z,14.10
2017-11-13T13:08:16.330Z,10.60
2017-11-13T13:10:44.617Z,6.00
2017-11-13T13:13:12.564Z,6.00
2017-11-13T13:15:40.833Z,10.80
2017-11-13T13:18:08.394Z,4.67
2017-11-13T13:20:35.922Z,8.53
2017-11-13T13:23:03.672Z,6.57
2017-11-13T13:25:31.514Z,10.23
2017-11-13T13:28:00.107Z,9.40
2017-11-13T13:30:27.619Z,4.70
2017-11-13T13:32:55.152Z,6.87
2017-11-13T13:35:22.706Z,7.83
2017-11-13T13:37:50.249Z,9.20
2017-11-13T13:40:17.754Z,6.17
2017-11-13T13:42:45.300Z,9.00
2017-11-13T13:45:12.827Z,5.20
2017-11-13T13:47:40.329Z,5.07
2017-11-13T13:50:08.102Z,8.03
2017-11-13T13:52:35.602Z,4.33
2017-11-13T13:55:03.134Z,7.10
2017-11-13T13:57:31.425Z,11.20
2017-11-13T13:59:59.315Z,7.40
2017-11-13T14:02:26.919Z,4.27
2017-11-13T14:04:54.479Z,7.60
2017-11-13T14:07:22.688Z,9.17
2017-11-13T14:09:50.226Z,6.50
2017-11-13T14:12:18.525Z,5.67
2017-11-13T14:14:46.844Z,7.80
2017-11-13T14:17:14.426Z,10.90
2017-11-13T14:19:41.981Z,5.63
2017-11-13T14:22:09.503Z,5.00
2017-11-13T14:24:37.060Z,8.50
2017-11-13T14:27:04.649Z,11.73
2017-11-13T14:29:32.166Z,11.93
2017-11-13T14:32:00.452Z,7.90
2017-11-13T14:34:28.307Z,13.10
2017-11-13T14:36:55.840Z,8.97
2017-11-13T14:39:25.026Z,10.63
2017-11-13T14:41:52.608Z,12.70
2017-11-13T14:44:20.157Z,8.33
2017-11-13T14:46:48.436Z,12.50
2017-11-13T14:49:16.689Z,13.13
2017-11-13T14:51:44.394Z,5.90
2017-11-13T14:54:12.210Z,8.43
2017-11-13T14:56:39.740Z,11.27
2017-11-13T14:59:08.043Z,11.57
2017-11-13T15:01:35.652Z,5.47
2017-11-13T15:04:03.202Z,11.70
2017-11-13T15:06:32.129Z,10.93
2017-11-13T15:08:59.753Z,13.33
2017-11-13T15:11:28.064Z,9.93
2017-11-13T15:13:55.582Z,12.77
2017-11-13T15:16:23.873Z,12.80
2017-11-13T15:18:51.427Z,11.20
2017-11-13T15:21:19.734Z,11.47
2017-11-13T15:23:47.249Z,9.90
2017-11-13T15:26:15.619Z,14.17
2017-11-13T15:28:43.385Z,12.17
2017-11-13T15:31:10.909Z,12.10
2017-11-13T15:33:38.446Z,7.20
2017-11-13T15:36:05.955Z,13.03
2017-11-13T15:38:33.488Z,6.20
2017-11-13T15:41:01.048Z,12.33
2017-11-13T15:43:28.558Z,8.60
2017-11-13T15:45:56.858Z,16.92
2017-11-13T15:48:24.431Z,10.20
2017-11-13T15:50:52.780Z,10.43
2017-11-13T15:53:20.307Z,10.27
2017-11-13T15:55:47.900Z,9.68
2017-11-13T15:58:15.419Z,16.85
2017-11-13T16:00:43.913Z,10.00
2017-11-13T16:03:12.352Z,11.90
2017-11-13T16:05:40.043Z,9.07
2017-11-13T16:08:08.601Z,13.68
2017-11-13T16:10:37.141Z,15.13
2017-11-13T16:13:04.986Z,6.75
2017-11-13T16:15:32.887Z,15.85
2017-11-13T16:18:00.777Z,8.95
2017-11-13T16:20:29.820Z,19.52
2017-11-13T16:22:59.206Z,15.55
2017-11-13T16:25:27.140Z,16.48
2017-11-13T16:27:55.428Z,13.98
2017-11-13T16:30:23.257Z,12.93
2017-11-13T16:32:51.168Z,14.18
2017-11-13T16:35:19.978Z,15.75
2017-11-13T16:37:47.777Z,15.23
2017-11-13T16:40:15.891Z,15.02
2017-11-13T16:42:45.425Z,11.18
2017-11-13T16:45:13.488Z,16.92
2017-11-13T16:47:41.280Z,10.57
2017-11-13T16:50:08.981Z,14.35
2017-11-13T16:52:36.744Z,12.90
2017-11-13T16:55:04.846Z,15.35
2017-11-13T16:57:33.644Z,15.00
2017-11-13T17:00:01.413Z,12.50
2017-11-13T17:02:29.859Z,15.48
2017-11-13T17:04:57.590Z,18.00
2017-11-13T17:07:25.480Z,18.05
2017-11-13T17:09:53.420Z,12.30
2017-11-13T17:12:21.270Z,13.18
2017-11-13T17:14:49.312Z,10.05
2017-11-13T17:17:17.874Z,22.40
2017-11-13T17:19:45.896Z,16.67
2017-11-13T17:22:13.898Z,10.05
2017-11-13T17:24:42.497Z,17.92
2017-11-13T17:27:10.583Z,10.68
2017-11-13T17:29:38.401Z,11.95
2017-11-13T17:32:06.491Z,10.18
2017-11-13T17:34:34.303Z,13.02
2017-11-13T17:37:02.913Z,23.55
2017-11-13T17:39:30.940Z,21.10
2017-11-13T17:41:58.995Z,14.57
2017-11-13T17:44:27.563Z,13.40
2017-11-13T17:46:55.342Z,13.75
2017-11-13T17:49:23.076Z,13.25
2017-11-13T17:51:51.012Z,15.27
2017-11-13T17:54:18.756Z,11.40
2017-11-13T17:56:46.845Z,18.25
2017-11-13T17:59:14.935Z,16.08
2017-11-13T18:01:42.850Z,24.85
2017-11-13T18:04:11.703Z,23.55
2017-11-13T18:06:39.614Z,20.50
2017-11-13T18:09:08.390Z,15.52
2017-11-13T18:11:37.081Z,22.92
2017-11-13T18:14:05.879Z,10.43
2017-11-13T18:16:33.929Z,17.33
2017-11-13T18:19:02.771Z,40.58
2017-11-13T18:21:30.553Z,18.25
2017-11-13T18:23:58.196Z,15.15
2017-11-13T18:26:26.653Z,14.68
2017-11-13T18:28:54.280Z,15.27
2017-11-13T18:31:22.077Z,11.75
2017-11-13T18:33:50.818Z,17.00
2017-11-13T18:36:18.678Z,18.15
2017-11-13T18:38:46.648Z,13.70
2017-11-13T18:41:14.729Z,19.52
2017-11-13T18:43:42.483Z,14.93
2017-11-13T18:46:10.328Z,16.48
2017-11-13T18:48:38.215Z,20.20
2017-11-13T18:51:06.204Z,20.90
2017-11-13T18:53:34.971Z,23.73
2017-11-13T18:56:02.915Z,19.15
2017-11-13T18:58:30.748Z,21.37
2017-11-13T19:00:58.641Z,14.52
2017-11-13T19:03:26.763Z,18.15
2017-11-13T19:05:55.349Z,19.00
2017-11-13T19:08:23.153Z,19.58
2017-11-13T19:10:51.885Z,19.05
2017-11-13T19:13:19.621Z,21.12
2017-11-13T19:15:47.936Z,20.45
2017-11-13T19:18:16.034Z,19.98
2017-11-13T19:20:43.648Z,17.60
2017-11-13T19:23:12.047Z,13.62
2017-11-13T19:25:39.596Z,11.70
2017-11-13T19:28:07.872Z,12.77
2017-11-13T19:30:36.164Z,37.75
2017-11-13T19:33:04.321Z,14.35
2017-11-13T19:35:32.816Z,21.40
2017-11-13T19:38:01.132Z,17.58
2017-11-13T19:40:28.679Z,14.38
2017-11-13T19:42:56.249Z,18.08
2017-11-13T19:45:23.815Z,9.40
2017-11-13T19:47:51.421Z,15.00
2017-11-13T19:50:18.982Z,12.80
2017-11-13T19:52:46.613Z,12.52
2017-11-13T19:55:14.933Z,14.65
2017-11-13T19:57:42.493Z,14.10
2017-11-13T20:00:10.215Z,15.88
2017-11-13T20:02:39.035Z,16.52
2017-11-13T20:05:06.929Z,14.10
2017-11-13T20:07:34.708Z,13.82
2017-11-13T20:10:02.273Z,12.68
2017-11-13T20:12:29.929Z,13.52
2017-11-13T20:14:57.778Z,15.00
2017-11-13T20:17:25.345Z,14.43
2017-11-13T20:19:53.129Z,16.83
2017-11-13T20:22:20.756Z,22.75
2017-11-13T20:24:48.278Z,14.00
2017-11-13T20:27:16.139Z,25.10
2017-11-13T20:29:44.593Z,25.50
2017-11-13T20:32:12.277Z,14.82
2017-11-13T20:34:41.316Z,17.55
2017-11-13T20:37:08.953Z,17.02
2017-11-13T20:39:36.563Z,18.83
2017-11-13T20:42:04.126Z,20.65
2017-11-13T20:44:31.876Z,16.95
2017-11-13T20:46:59.445Z,17.33
2017-11-13T20:49:26.954Z,21.27
2017-11-13T20:51:54.536Z,16.80
2017-11-13T20:54:22.221Z,15.95
2017-11-13T20:56:49.766Z,16.87
2017-11-13T20:59:17.287Z,18.50
2017-11-13T21:01:44.893Z,18.90
2017-11-13T21:04:12.419Z,15.18
2017-11-13T21:06:40.693Z,21.35
2017-11-13T21:09:08.993Z,24.10
2017-11-13T21:11:36.494Z,15.00
2017-11-13T21:14:05.015Z,24.48
2017-11-13T21:16:33.310Z,27.35
2017-11-13T21:19:00.828Z,17.58
2017-11-13T21:21:28.382Z,24.37
2017-11-13T21:23:55.926Z,19.17
2017-11-13T21:26:23.425Z,22.05
2017-11-13T21:28:51.713Z,18.95
2017-11-13T21:31:20.120Z,16.37
2017-11-13T21:33:47.701Z,25.00
2017-11-13T21:36:15.221Z,23.62
2017-11-13T21:38:42.771Z,20.98
2017-11-13T21:41:11.048Z,16.80
2017-11-13T21:43:38.946Z,28.35
2017-11-13T21:46:06.785Z,25.88
2017-11-13T21:48:34.441Z,22.87
2017-11-13T21:51:02.010Z,18.90
2017-11-13T21:53:29.563Z,22.42
2017-11-13T21:55:57.093Z,24.00
2017-11-13T21:58:24.815Z,20.52
2017-11-13T22:00:52.344Z,22.52
2017-11-13T22:03:19.880Z,29.27
2017-11-13T22:05:47.374Z,24.98
2017-11-13T22:08:14.930Z,19.60
2017-11-13T22:10:42.600Z,18.92
2017-11-13T22:13:10.284Z,18.33
2017-11-13T22:15:38.002Z,24.20
2017-11-13T22:18:06.277Z,19.52
2017-11-13T22:20:34.562Z,17.83
2017-11-13T22:23:02.101Z,24.17
2017-11-13T22:25:30.549Z,24.67
2017-11-13T22:27:58.063Z,17.70
2017-11-13T22:30:25.587Z,20.25
2017-11-13T22:32:53.082Z,23.15
2017-11-13T22:35:20.577Z,18.75
2017-11-13T22:37:48.109Z,19.05
2017-11-13T22:40:15.622Z,20.50
2017-11-13T22:42:43.137Z,15.93
2017-11-13T22:45:10.673Z,18.85
2017-11-13T22:47:38.202Z,24.50
2017-11-13T22:50:05.837Z,24.98
2017-11-13T22:52:33.386Z,15.18
2017-11-13T22:55:00.893Z,25.52
2017-11-13T22:57:29.165Z,28.20
2017-11-13T22:59:57.094Z,29.33
2017-11-13T23:02:24.817Z,21.20
2017-11-13T23:04:52.421Z,18.55
2017-11-13T23:07:20.043Z,18.17
2017-11-13T23:09:47.601Z,16.50
2017-11-13T23:12:15.130Z,18.75
2017-11-13T23:14:42.641Z,26.45
2017-11-13T23:17:10.166Z,17.80
2017-11-13T23:19:37.737Z,15.07
2017-11-13T23:22:05.252Z,15.52
2017-11-13T23:24:32.758Z,18.25
2017-11-13T23:27:00.638Z,15.20
2017-11-13T23:29:28.138Z,13.00
2017-11-13T23:31:55.654Z,19.73
2017-11-13T23:34:23.168Z,16.62
2017-11-13T23:36:50.680Z,16.12
2017-11-13T23:39:18.196Z,21.08
2017-11-13T23:41:46.474Z,16.98
2017-11-13T23:44:14.757Z,18.70
2017-11-13T23:46:42.270Z,21.60
2017-11-13T23:49:09.947Z,27.85
2017-11-13T23:51:37.461Z,20.23
2017-11-13T23:54:04.994Z,19.05
2017-11-13T23:56:33.298Z,14.87
2017-11-13T23:59:00.836Z,14.27
